createdAt,value
2019-04-16T00:00:25.833Z,2.80
2019-04-16T00:02:57.323Z,2.80
2019-04-16T00:05:44.201Z,2.80
2019-04-16T00:08:27.242Z,2.80
2019-04-16T00:10:58.908Z,2.70
2019-04-16T00:13:55.717Z,2.70
2019-04-16T00:16:25.778Z,2.70
2019-04-16T00:18:58.141Z,2.70
2019-04-16T00:21:44.111Z,2.60
2019-04-16T00:24:18.581Z,2.60
2019-04-16T00:26:50.490Z,2.50
2019-04-16T00:29:19.240Z,2.50
2019-04-16T00:31:55.724Z,2.40
2019-04-16T00:34:24.956Z,2.40
2019-04-16T00:36:57.587Z,2.40
2019-04-16T00:39:26.298Z,2.40
2019-04-16T00:41:56.355Z,2.30
2019-04-16T00:44:25.037Z,2.30
2019-04-16T00:46:54.067Z,2.20
2019-04-16T00:49:26.346Z,2.20
2019-04-16T00:51:54.451Z,2.20
2019-04-16T00:54:23.779Z,2.20
2019-04-16T00:56:52.558Z,2.20
2019-04-16T00:59:24.185Z,2.20
2019-04-16T01:01:53.018Z,2.20
2019-04-16T01:04:21.694Z,2.20
2019-04-16T01:06:50.460Z,2.20
2019-04-16T01:09:19.389Z,2.20
2019-04-16T01:11:49.749Z,2.20
2019-04-16T01:14:19.236Z,2.20
2019-04-16T01:16:48.652Z,2.20
2019-04-16T01:19:17.927Z,2.20
2019-04-16T01:21:47.039Z,2.10
2019-04-16T01:24:17.600Z,2.10
2019-04-16T01:26:46.435Z,2.10
2019-04-16T01:29:16.205Z,2.00
2019-04-16T01:32:11.377Z,2.00
2019-04-16T01:34:49.387Z,1.90
2019-04-16T01:37:25.782Z,1.90
2019-04-16T01:39:57.896Z,1.90
2019-04-16T01:42:26.848Z,1.90
2019-04-16T01:44:59.380Z,1.90
2019-04-16T01:47:26.743Z,1.90
2019-04-16T01:49:55.457Z,1.90
2019-04-16T01:52:24.203Z,1.90
2019-04-16T01:54:54.828Z,1.90
2019-04-16T01:57:23.871Z,1.90
2019-04-16T01:59:52.614Z,1.80
2019-04-16T02:02:31.135Z,1.80
2019-04-16T02:05:00.462Z,1.80
2019-04-16T02:07:29.955Z,1.80
2019-04-16T02:10:06.430Z,1.80
2019-04-16T02:12:34.449Z,1.80
2019-04-16T02:15:03.423Z,1.80
2019-04-16T02:17:32.451Z,1.80
2019-04-16T02:20:02.085Z,1.80
2019-04-16T02:22:31.641Z,1.70
2019-04-16T02:25:00.322Z,1.70
2019-04-16T02:27:29.007Z,1.70
2019-04-16T02:29:58.587Z,1.70
2019-04-16T02:32:28.351Z,1.70
2019-04-16T02:34:57.105Z,1.70
2019-04-16T02:37:25.803Z,1.70
2019-04-16T02:39:54.741Z,1.80
2019-04-16T02:42:30.748Z,1.70
2019-04-16T02:44:54.539Z,1.70
2019-04-16T02:47:23.558Z,1.70
2019-04-16T02:49:56.431Z,1.60
2019-04-16T02:52:37.603Z,1.60
2019-04-16T02:55:20.055Z,1.60
2019-04-16T02:58:05.593Z,1.60
2019-04-16T03:01:00.035Z,1.60
2019-04-16T03:03:34.265Z,1.60
2019-04-16T03:06:08.833Z,1.70
2019-04-16T03:08:52.461Z,1.70
2019-04-16T03:11:21.681Z,1.70
2019-04-16T03:13:56.805Z,1.60
2019-04-16T03:16:38.763Z,1.70
2019-04-16T03:19:11.893Z,1.70
2019-04-16T03:21:40.618Z,1.60
2019-04-16T03:24:11.547Z,1.60
2019-04-16T03:26:44.152Z,1.60
2019-04-16T03:29:12.713Z,1.50
2019-04-16T03:31:44.322Z,1.50
2019-04-16T03:34:19.109Z,1.40
2019-04-16T03:36:48.223Z,1.40
2019-04-16T03:39:20.716Z,1.40
2019-04-16T03:41:49.519Z,1.40
2019-04-16T03:44:28.292Z,1.40
2019-04-16T03:46:59.232Z,1.30
2019-04-16T03:49:29.767Z,1.30
2019-04-16T03:52:04.818Z,1.30
2019-04-16T03:54:32.583Z,1.30
2019-04-16T03:57:02.860Z,1.30
2019-04-16T03:59:32.100Z,1.30
2019-04-16T04:02:06.136Z,1.20
2019-04-16T04:04:34.856Z,1.30
2019-04-16T04:07:03.776Z,1.20
2019-04-16T04:09:32.439Z,1.20
2019-04-16T04:12:01.111Z,1.30
2019-04-16T04:14:30.351Z,1.30
2019-04-16T04:16:59.091Z,1.30
2019-04-16T04:19:27.774Z,1.40
2019-04-16T04:21:56.422Z,1.40
2019-04-16T04:24:25.492Z,1.40
2019-04-16T04:26:54.518Z,1.50
2019-04-16T04:29:24.689Z,1.50
2019-04-16T04:31:53.945Z,1.90
2019-04-16T04:34:22.629Z,2.30
2019-04-16T04:36:51.374Z,2.20
2019-04-16T04:39:20.206Z,2.40
2019-04-16T04:41:49.152Z,2.80
2019-04-16T04:44:18.241Z,2.70
2019-04-16T04:46:47.119Z,2.50
2019-04-16T04:49:16.184Z,2.40
2019-04-16T04:51:45.257Z,2.70
2019-04-16T04:54:16.409Z,3.60
2019-04-16T04:56:53.281Z,4.50
2019-04-16T04:59:36.876Z,5.40
2019-04-16T05:02:07.061Z,6.40
2019-04-16T05:04:42.578Z,6.90
2019-04-16T05:07:12.259Z,7.20
2019-04-16T05:09:43.292Z,7.80
2019-04-16T05:12:12.044Z,8.20
2019-04-16T05:14:51.504Z,8.50
2019-04-16T05:17:20.293Z,8.60
2019-04-16T05:19:49.619Z,8.90
2019-04-16T05:22:21.555Z,9.10
2019-04-16T05:24:50.737Z,9.20
2019-04-16T05:27:19.676Z,9.00
2019-04-16T05:29:49.559Z,9.50
2019-04-16T05:32:18.687Z,9.50
2019-04-16T05:34:47.399Z,9.90
2019-04-16T05:37:19.534Z,10.40
2019-04-16T05:39:47.085Z,10.50
2019-04-16T05:42:16.622Z,10.70
2019-04-16T05:44:45.705Z,10.70
2019-04-16T05:47:17.900Z,10.40
2019-04-16T05:49:45.384Z,9.90
2019-04-16T05:52:15.872Z,10.20
2019-04-16T05:54:54.506Z,10.50
2019-04-16T05:57:29.285Z,10.80
2019-04-16T05:59:58.376Z,11.10
2019-04-16T06:02:34.296Z,11.60
2019-04-16T06:05:03.896Z,11.00
2019-04-16T06:07:37.701Z,10.40
2019-04-16T06:10:03.344Z,11.80
2019-04-16T06:12:40.754Z,11.50
2019-04-16T06:15:22.346Z,11.70
2019-04-16T06:18:07.746Z,11.60
2019-04-16T06:20:49.437Z,11.70
2019-04-16T06:23:26.538Z,11.30
2019-04-16T06:26:05.211Z,10.90
2019-04-16T06:29:08.574Z,12.00
2019-04-16T06:31:40.279Z,12.20
2019-04-16T06:34:16.855Z,12.30
2019-04-16T06:36:49.179Z,13.20
2019-04-16T06:39:32.457Z,12.70
2019-04-16T06:42:10.228Z,12.60
2019-04-16T06:44:47.318Z,13.50
2019-04-16T06:47:33.817Z,12.90
2019-04-16T06:50:10.691Z,13.70
2019-04-16T06:52:58.586Z,14.00
2019-04-16T06:55:42.996Z,14.30
2019-04-16T06:58:27.263Z,14.40
2019-04-16T07:01:06.130Z,13.50
2019-04-16T07:03:59.978Z,14.30
2019-04-16T07:06:46.574Z,14.30
2019-04-16T07:09:41.896Z,14.30
2019-04-16T07:12:20.214Z,14.60
2019-04-16T07:14:49.093Z,15.30
2019-04-16T07:17:18.879Z,14.60
2019-04-16T07:19:47.750Z,14.90
2019-04-16T07:22:20.706Z,14.90
2019-04-16T07:24:49.503Z,15.30
2019-04-16T07:27:20.220Z,15.50
2019-04-16T07:29:52.977Z,16.00
2019-04-16T07:32:47.955Z,15.50
2019-04-16T07:35:33.885Z,15.90
2019-04-16T07:38:15.867Z,16.30
2019-04-16T07:41:02.734Z,16.10
2019-04-16T07:44:04.491Z,16.20
2019-04-16T07:46:59.266Z,17.00
2019-04-16T07:49:40.924Z,16.50
2019-04-16T07:52:33.488Z,16.70
2019-04-16T07:55:20.388Z,17.20
2019-04-16T07:57:49.438Z,17.70
2019-04-16T08:00:19.122Z,17.40
2019-04-16T08:02:50.685Z,17.10
2019-04-16T08:05:18.553Z,17.00
2019-04-16T08:07:49.784Z,17.00
2019-04-16T08:10:19.497Z,17.40
2019-04-16T08:12:51.832Z,17.60
2019-04-16T08:15:22.030Z,17.80
2019-04-16T08:17:50.746Z,18.30
2019-04-16T08:20:20.956Z,18.40
2019-04-16T08:22:52.076Z,17.50
2019-04-16T08:25:26.916Z,17.10
2019-04-16T08:27:55.955Z,16.70
2019-04-16T08:30:24.811Z,16.30
2019-04-16T08:32:53.501Z,16.60
2019-04-16T08:35:22.167Z,16.40
2019-04-16T08:37:50.847Z,17.00
2019-04-16T08:40:19.529Z,17.20
2019-04-16T08:42:48.520Z,17.30
2019-04-16T08:45:20.436Z,16.80
2019-04-16T08:47:47.825Z,16.80
2019-04-16T08:50:16.523Z,17.00
2019-04-16T08:52:45.254Z,17.70
2019-04-16T08:55:14.107Z,17.70
2019-04-16T08:57:43.007Z,17.30
2019-04-16T09:00:15.179Z,17.80
2019-04-16T09:02:44.247Z,18.00
2019-04-16T09:05:13.661Z,17.20
2019-04-16T09:07:42.846Z,16.80
2019-04-16T09:10:18.155Z,17.00
2019-04-16T09:12:50.779Z,17.00
2019-04-16T09:15:21.208Z,16.80
2019-04-16T09:17:55.214Z,17.10
2019-04-16T09:20:27.654Z,16.90
2019-04-16T09:22:58.849Z,16.60
2019-04-16T09:25:36.314Z,16.60
2019-04-16T09:28:24.387Z,17.20
2019-04-16T09:31:02.699Z,17.00
2019-04-16T09:33:38.726Z,17.00
2019-04-16T09:36:13.146Z,16.40
2019-04-16T09:38:57.496Z,16.00
2019-04-16T09:41:35.270Z,16.00
2019-04-16T09:44:04.479Z,16.60
2019-04-16T09:46:50.284Z,17.50
2019-04-16T09:49:04.767Z,16.30
2019-04-16T09:51:34.162Z,16.20
2019-04-16T09:54:02.970Z,17.00
2019-04-16T09:56:32.553Z,17.80
2019-04-16T09:59:07.497Z,16.90
2019-04-16T10:01:42.235Z,17.20
2019-04-16T10:04:13.976Z,17.10
2019-04-16T10:06:42.775Z,17.20
2019-04-16T10:09:11.616Z,16.70
2019-04-16T10:11:40.482Z,15.90
2019-04-16T10:14:09.879Z,16.50
2019-04-16T10:16:39.613Z,16.40
2019-04-16T10:19:09.242Z,16.00
2019-04-16T10:21:38.419Z,16.40
2019-04-16T10:24:25.336Z,16.60
2019-04-16T10:26:56.897Z,17.20
2019-04-16T10:29:26.688Z,17.00
2019-04-16T10:31:56.157Z,16.80
2019-04-16T10:34:25.169Z,16.70
2019-04-16T10:36:54.356Z,17.00
2019-04-16T10:39:51.416Z,17.20
2019-04-16T10:42:43.155Z,16.90
2019-04-16T10:45:40.082Z,16.20
2019-04-16T10:48:27.123Z,15.80
2019-04-16T10:51:06.119Z,16.50
2019-04-16T10:54:12.517Z,17.10
2019-04-16T10:56:58.877Z,16.80
2019-04-16T10:59:58.816Z,16.50
2019-04-16T11:02:42.298Z,16.20
2019-04-16T11:05:19.247Z,16.40
2019-04-16T11:07:48.058Z,17.10
2019-04-16T11:10:17.181Z,17.10
2019-04-16T11:12:46.316Z,16.50
2019-04-16T11:15:20.228Z,16.40
2019-04-16T11:17:48.968Z,16.20
2019-04-16T11:20:17.910Z,16.10
2019-04-16T11:22:46.646Z,16.20
2019-04-16T11:25:15.564Z,17.20
2019-04-16T11:27:44.363Z,16.80
2019-04-16T11:30:30.982Z,16.80
2019-04-16T11:33:00.247Z,16.70
2019-04-16T11:35:29.030Z,16.50
2019-04-16T11:37:57.745Z,16.50
2019-04-16T11:40:26.418Z,16.30
2019-04-16T11:42:55.176Z,16.00
2019-04-16T11:45:24.476Z,15.70
2019-04-16T11:47:53.207Z,15.40
2019-04-16T11:50:21.905Z,15.50
2019-04-16T11:52:50.647Z,15.40
2019-04-16T11:55:19.426Z,15.30
2019-04-16T11:57:48.203Z,15.40
2019-04-16T12:00:22.861Z,15.60
2019-04-16T12:03:10.332Z,15.60
2019-04-16T12:05:56.762Z,15.50
2019-04-16T12:08:50.927Z,15.80
2019-04-16T12:11:23.971Z,15.60
2019-04-16T12:14:10.663Z,15.60
2019-04-16T12:16:52.160Z,15.50
2019-04-16T12:19:55.235Z,15.40
2019-04-16T12:22:45.840Z,15.70
2019-04-16T12:25:33.900Z,15.90
2019-04-16T12:28:13.441Z,15.90
2019-04-16T12:30:57.712Z,15.80
2019-04-16T12:33:42.423Z,16.00
2019-04-16T12:36:36.566Z,16.10
2019-04-16T12:39:35.552Z,15.90
2019-04-16T12:42:24.922Z,16.30
2019-04-16T12:45:09.403Z,16.50
2019-04-16T12:47:42.723Z,16.20
2019-04-16T12:50:17.508Z,16.10
2019-04-16T12:53:08.405Z,15.90
2019-04-16T12:55:54.962Z,16.10
2019-04-16T12:58:51.371Z,15.90
2019-04-16T13:01:39.174Z,15.80
2019-04-16T13:04:33.719Z,16.00
2019-04-16T13:06:58.749Z,16.10
2019-04-16T13:09:33.099Z,15.90
2019-04-16T13:12:24.028Z,16.10
2019-04-16T13:15:12.265Z,16.10
2019-04-16T13:18:03.942Z,15.80
2019-04-16T13:20:57.853Z,15.70
2019-04-16T13:23:53.147Z,15.50
2019-04-16T13:26:30.797Z,15.50
2019-04-16T13:29:02.016Z,15.60
2019-04-16T13:31:30.745Z,15.80
2019-04-16T13:34:00.070Z,15.80
2019-04-16T13:36:29.222Z,15.90
2019-04-16T13:39:04.717Z,15.90
2019-04-16T13:41:33.450Z,15.80
2019-04-16T13:44:09.040Z,15.70
2019-04-16T13:46:36.028Z,15.80
2019-04-16T13:49:24.522Z,16.00
2019-04-16T13:51:56.993Z,15.80
2019-04-16T13:54:41.975Z,15.90
2019-04-16T13:57:14.636Z,15.70
2019-04-16T14:00:04.922Z,15.80
2019-04-16T14:02:52.055Z,15.70
2019-04-16T14:05:21.578Z,15.70
2019-04-16T14:07:50.467Z,15.70
2019-04-16T14:10:19.521Z,15.60
2019-04-16T14:12:49.275Z,15.80
2019-04-16T14:15:31.130Z,15.80
2019-04-16T14:17:52.964Z,15.60
2019-04-16T14:20:20.562Z,15.70
2019-04-16T14:22:53.347Z,15.90
2019-04-16T14:25:20.335Z,16.00
2019-04-16T14:27:49.107Z,15.80
2019-04-16T14:30:22.790Z,15.80
2019-04-16T14:32:51.849Z,15.70
2019-04-16T14:35:33.199Z,15.50
2019-04-16T14:38:01.600Z,15.50
2019-04-16T14:40:30.922Z,15.50
2019-04-16T14:43:00.034Z,15.50
2019-04-16T14:45:59.185Z,15.50
2019-04-16T14:48:24.907Z,15.40
2019-04-16T14:50:53.673Z,15.50
2019-04-16T14:53:45.975Z,15.40
2019-04-16T14:56:19.595Z,15.30
2019-04-16T14:59:01.047Z,15.30
2019-04-16T15:01:41.658Z,15.30
2019-04-16T15:04:21.308Z,15.30
2019-04-16T15:07:07.931Z,15.40
2019-04-16T15:10:03.015Z,15.30
2019-04-16T15:12:40.796Z,15.20
2019-04-16T15:15:16.969Z,15.30
2019-04-16T15:17:48.895Z,15.40
2019-04-16T15:20:42.740Z,15.30
2019-04-16T15:23:29.470Z,15.30
2019-04-16T15:26:17.282Z,15.30
2019-04-16T15:29:03.992Z,15.20
2019-04-16T15:31:48.242Z,15.30
2019-04-16T15:34:20.820Z,15.20
2019-04-16T15:37:00.915Z,15.20
2019-04-16T15:39:39.575Z,15.20
2019-04-16T15:42:33.582Z,15.20
2019-04-16T15:45:16.594Z,15.10
2019-04-16T15:48:06.959Z,15.10
2019-04-16T15:50:58.036Z,15.00
2019-04-16T15:53:39.373Z,15.00
2019-04-16T15:56:12.273Z,15.00
2019-04-16T15:59:04.675Z,15.00
2019-04-16T16:02:01.563Z,15.00
2019-04-16T16:04:47.944Z,15.00
2019-04-16T16:07:23.985Z,14.90
2019-04-16T16:10:14.550Z,15.00
2019-04-16T16:12:43.369Z,14.90
2019-04-16T16:15:13.590Z,14.90
2019-04-16T16:17:42.385Z,14.80
2019-04-16T16:20:11.404Z,14.90
2019-04-16T16:22:40.516Z,14.80
2019-04-16T16:25:09.649Z,14.80
2019-04-16T16:27:41.712Z,14.80
2019-04-16T16:30:09.198Z,14.70
2019-04-16T16:32:37.973Z,14.70
2019-04-16T16:35:06.916Z,14.70
2019-04-16T16:37:36.781Z,14.70
2019-04-16T16:40:07.247Z,14.70
2019-04-16T16:42:36.617Z,14.70
2019-04-16T16:45:06.167Z,14.60
2019-04-16T16:47:41.817Z,14.50
2019-04-16T16:50:16.253Z,14.50
2019-04-16T16:53:02.143Z,14.50
2019-04-16T16:55:39.660Z,14.40
2019-04-16T16:58:42.942Z,14.40
2019-04-16T17:01:36.716Z,14.30
2019-04-16T17:04:17.268Z,14.30
2019-04-16T17:06:46.062Z,14.20
2019-04-16T17:09:29.745Z,14.10
2019-04-16T17:11:57.596Z,14.00
2019-04-16T17:14:26.688Z,13.90
2019-04-16T17:17:11.260Z,13.90
2019-04-16T17:19:26.435Z,13.80
2019-04-16T17:21:55.304Z,13.70
2019-04-16T17:24:24.593Z,13.60
2019-04-16T17:26:54.676Z,13.50
2019-04-16T17:29:23.778Z,13.40
2019-04-16T17:31:53.549Z,13.30
2019-04-16T17:34:22.822Z,13.20
2019-04-16T17:36:52.008Z,13.10
2019-04-16T17:39:42.385Z,13.10
2019-04-16T17:42:10.645Z,12.90
2019-04-16T17:44:59.324Z,12.90
2019-04-16T17:47:46.307Z,12.70
2019-04-16T17:50:46.524Z,12.60
2019-04-16T17:53:24.885Z,12.60
2019-04-16T17:56:11.830Z,12.60
2019-04-16T17:58:53.583Z,12.60
2019-04-16T18:01:40.393Z,12.50
2019-04-16T18:04:31.004Z,12.40
2019-04-16T18:07:17.287Z,12.40
2019-04-16T18:10:00.453Z,12.30
2019-04-16T18:12:58.382Z,12.20
2019-04-16T18:15:43.592Z,12.00
2019-04-16T18:18:23.580Z,11.90
2019-04-16T18:21:11.428Z,11.90
2019-04-16T18:23:53.293Z,11.90
2019-04-16T18:26:46.403Z,11.90
2019-04-16T18:29:31.807Z,11.80
2019-04-16T18:32:11.080Z,11.70
2019-04-16T18:34:56.234Z,11.70
2019-04-16T18:37:49.678Z,11.60
2019-04-16T18:40:30.462Z,11.60
2019-04-16T18:43:16.564Z,11.40
2019-04-16T18:46:15.158Z,11.40
2019-04-16T18:48:44.841Z,11.40
2019-04-16T18:51:14.761Z,11.30
2019-04-16T18:53:44.164Z,11.20
2019-04-16T18:56:13.236Z,11.20
2019-04-16T18:58:42.275Z,11.10
2019-04-16T19:01:15.212Z,11.10
2019-04-16T19:03:44.164Z,11.10
2019-04-16T19:06:15.823Z,11.00
2019-04-16T19:08:44.999Z,10.90
2019-04-16T19:11:13.689Z,10.80
2019-04-16T19:13:42.837Z,10.70
2019-04-16T19:16:11.983Z,10.70
2019-04-16T19:18:41.097Z,10.70
2019-04-16T19:21:10.079Z,10.60
2019-04-16T19:23:38.819Z,10.60
2019-04-16T19:26:07.902Z,10.60
2019-04-16T19:28:39.543Z,10.50
2019-04-16T19:31:07.106Z,10.50
2019-04-16T19:33:38.266Z,10.50
2019-04-16T19:36:07.091Z,10.50
2019-04-16T19:38:39.381Z,10.40
2019-04-16T19:41:07.359Z,10.40
2019-04-16T19:43:36.078Z,10.40
2019-04-16T19:46:05.172Z,10.30
2019-04-16T19:48:35.816Z,10.10
2019-04-16T19:51:07.213Z,10.10
2019-04-16T19:53:35.559Z,10.10
2019-04-16T19:56:04.459Z,10.00
2019-04-16T19:58:33.174Z,9.90
2019-04-16T20:01:05.136Z,9.90
2019-04-16T20:03:33.960Z,9.80
2019-04-16T20:06:02.687Z,9.70
2019-04-16T20:08:35.430Z,9.70
2019-04-16T20:11:01.783Z,9.60
2019-04-16T20:13:30.508Z,9.60
2019-04-16T20:16:00.655Z,9.50
2019-04-16T20:18:29.755Z,9.40
2019-04-16T20:21:01.050Z,9.20
2019-04-16T20:23:29.260Z,9.10
2019-04-16T20:26:00.098Z,9.10
2019-04-16T20:28:28.394Z,9.10
2019-04-16T20:31:02.181Z,9.10
2019-04-16T20:33:28.098Z,9.00
2019-04-16T20:35:56.768Z,8.90
2019-04-16T20:38:29.028Z,8.90
2019-04-16T20:40:56.049Z,8.90
2019-04-16T20:43:24.739Z,8.90
2019-04-16T20:45:53.862Z,8.80
2019-04-16T20:48:22.712Z,8.80
2019-04-16T20:50:52.984Z,8.80
2019-04-16T20:53:22.480Z,8.70
2019-04-16T20:55:51.206Z,8.70
2019-04-16T20:58:19.881Z,8.80
2019-04-16T21:00:50.098Z,8.70
2019-04-16T21:03:22.341Z,8.60
2019-04-16T21:05:57.800Z,8.60
2019-04-16T21:08:24.195Z,8.50
2019-04-16T21:10:50.970Z,8.50
2019-04-16T21:13:19.951Z,8.40
2019-04-16T21:15:48.643Z,8.50
2019-04-16T21:18:17.393Z,8.50
2019-04-16T21:20:50.838Z,8.40
2019-04-16T21:23:16.841Z,8.40
2019-04-16T21:25:46.107Z,8.40
2019-04-16T21:28:21.219Z,8.30
2019-04-16T21:30:53.505Z,8.20
2019-04-16T21:33:28.544Z,8.10
2019-04-16T21:36:03.125Z,8.20
2019-04-16T21:38:42.249Z,8.20
2019-04-16T21:41:16.910Z,8.20
2019-04-16T21:43:45.662Z,8.10
2019-04-16T21:46:20.179Z,8.10
2019-04-16T21:48:45.401Z,8.00
2019-04-16T21:51:19.036Z,8.00
2019-04-16T21:56:14.769Z,7.90
2019-04-16T21:58:43.570Z,7.90
2019-04-16T22:01:23.669Z,7.90
2019-04-16T22:04:01.601Z,7.80
2019-04-16T22:06:30.632Z,7.80
2019-04-16T22:09:03.277Z,7.80
2019-04-16T22:11:30.208Z,7.80
2019-04-16T22:13:58.887Z,7.80
2019-04-16T22:16:29.761Z,7.80
2019-04-16T22:18:58.815Z,7.80
2019-04-16T22:21:28.050Z,7.70
2019-04-16T22:23:57.349Z,7.60
2019-04-16T22:26:26.063Z,7.60
2019-04-16T22:28:54.746Z,7.50
2019-04-16T22:31:24.839Z,7.40
2019-04-16T22:33:53.696Z,7.30
2019-04-16T22:36:25.781Z,7.30
2019-04-16T22:39:00.534Z,7.40
2019-04-16T22:41:43.756Z,7.30
2019-04-16T22:44:37.764Z,7.30
2019-04-16T22:47:10.185Z,7.20
2019-04-16T22:49:39.142Z,7.20
2019-04-16T22:52:08.210Z,7.20
2019-04-16T22:54:37.164Z,7.20
2019-04-16T22:57:08.009Z,7.10
2019-04-16T22:59:39.427Z,7.00
2019-04-16T23:02:18.347Z,7.10
2019-04-16T23:04:47.395Z,7.10
2019-04-16T23:07:16.492Z,7.00
2019-04-16T23:09:45.705Z,7.00
2019-04-16T23:12:16.402Z,7.00
2019-04-16T23:14:45.507Z,6.90
2019-04-16T23:17:14.388Z,6.90
2019-04-16T23:19:43.207Z,6.90
2019-04-16T23:22:15.205Z,7.00
2019-04-16T23:24:42.324Z,6.90
2019-04-16T23:27:11.105Z,6.90
2019-04-16T23:29:40.382Z,6.80
2019-04-16T23:32:09.375Z,6.80
2019-04-16T23:34:39.138Z,6.80
2019-04-16T23:37:07.978Z,6.70
2019-04-16T23:39:37.621Z,6.70
2019-04-16T23:42:06.505Z,6.70
2019-04-16T23:44:48.456Z,6.60
2019-04-16T23:47:45.425Z,6.50
2019-04-16T23:50:44.698Z,6.60
2019-04-16T23:53:09.628Z,6.60
2019-04-16T23:55:57.555Z,6.60
